Time;durP1;ratioP1;P1;durP2;ratioP2;P2;SDS_P1;SDS_P2;PMS_P1;PMS_P2;Temp;Humidity;BMP_temperature;BMP_pressure;BME280_temperature;BME280_humidity;BME280_pressure;Samples;Min_cycle;Max_cycle;Signal;HPM_P1;HPM_P2
2021/01/10 00:02:29;;;;;;;116.68;54.85;;;13.50;66.80;;;;;;5046634;28;20029;-71
2021/01/10 00:05:04;;;;;;;111.30;54.00;;;13.50;66.80;;;;;;5045282;28;20402;-71
2021/01/10 00:07:44;;;;;;;111.50;56.83;;;13.50;66.80;;;;;;5015443;28;20454;-71
2021/01/10 00:10:31;;;;;;;110.47;54.33;;;13.50;66.80;;;;;;5054833;28;20048;-71
2021/01/10 00:13:32;;;;;;;114.28;54.85;;;13.50;66.80;;;;;;5050222;28;20087;-71
2021/01/10 00:16:19;;;;;;;108.35;54.10;;;13.50;66.80;;;;;;5049916;28;20052;-71
2021/01/10 00:18:59;;;;;;;116.63;58.33;;;13.50;66.90;;;;;;5035180;28;20025;-73
2021/01/10 00:21:47;;;;;;;115.50;54.22;;;13.50;66.90;;;;;;5051720;28;20283;-71
2021/01/10 00:24:27;;;;;;;107.45;54.17;;;13.50;66.90;;;;;;5053086;28;20024;-71
2021/01/10 00:26:56;;;;;;;109.97;55.08;;;13.50;66.90;;;;;;5026811;28;20095;-71
2021/01/10 00:29:26;;;;;;;118.93;57.03;;;13.50;66.90;;;;;;5046205;28;20092;-71
2021/01/10 00:31:57;;;;;;;112.65;55.75;;;13.50;66.90;;;;;;5034203;28;20025;-71
2021/01/10 00:34:38;;;;;;;111.80;55.58;;;13.50;66.90;;;;;;5039488;28;20028;-74
2021/01/10 00:37:20;;;;;;;104.40;52.63;;;13.50;66.90;;;;;;5020428;28;20033;-72
2021/01/10 00:39:57;;;;;;;110.18;52.58;;;13.40;66.90;;;;;;5052709;28;20031;-72
2021/01/10 00:42:28;;;;;;;110.05;52.80;;;13.50;66.90;;;;;;5032609;28;20033;-72
2021/01/10 00:44:59;;;;;;;109.40;55.92;;;13.50;66.90;;;;;;5035614;28;20021;-72
2021/01/10 00:47:36;;;;;;;109.57;55.25;;;13.50;66.90;;;;;;5028530;28;20119;-72
2021/01/10 00:50:08;;;;;;;104.90;55.22;;;13.50;66.90;;;;;;5049839;28;20040;-72
2021/01/10 00:52:35;;;;;;;112.45;54.47;;;13.50;66.90;;;;;;5052012;28;20035;-72
2021/01/10 00:55:09;;;;;;;114.00;54.05;;;13.50;66.90;;;;;;5039179;28;20060;-72
2021/01/10 00:57:38;;;;;;;111.63;53.80;;;13.50;66.90;;;;;;5030733;28;20498;-72
2021/01/10 01:00:22;;;;;;;113.93;55.90;;;13.50;67.00;;;;;;5052367;28;20035;-72
2021/01/10 01:03:03;;;;;;;104.60;52.65;;;13.50;66.90;;;;;;5051126;28;20047;-72
2021/01/10 01:05:41;;;;;;;106.93;52.05;;;13.40;67.00;;;;;;5051647;28;20103;-72
2021/01/10 01:08:16;;;;;;;111.68;56.28;;;13.50;67.00;;;;;;5048800;28;20057;-73
2021/01/10 01:10:58;;;;;;;108.47;52.13;;;13.40;66.90;;;;;;5013144;28;20025;-72
2021/01/10 01:13:24;;;;;;;106.00;53.70;;;13.50;66.90;;;;;;5028510;28;20488;-72
2021/01/10 01:15:56;;;;;;;101.63;50.58;;;13.40;67.00;;;;;;5030475;28;20064;-72
2021/01/10 01:18:21;;;;;;;106.07;53.83;;;13.40;67.00;;;;;;5023250;28;20490;-73
2021/01/10 01:21:01;;;;;;;100.63;51.15;;;13.40;67.00;;;;;;5025283;28;20018;-73
2021/01/10 01:23:27;;;;;;;105.90;53.58;;;13.40;67.00;;;;;;5002312;28;20046;-72
2021/01/10 01:26:05;;;;;;;108.05;51.20;;;13.40;67.00;;;;;;5014102;28;20481;-72
2021/01/10 01:28:43;;;;;;;109.35;53.67;;;13.50;67.00;;;;;;5012812;28;20064;-72
2021/01/10 01:31:19;;;;;;;104.75;52.58;;;13.40;67.00;;;;;;5027883;28;20545;-72
2021/01/10 01:33:54;;;;;;;104.57;54.00;;;13.50;67.00;;;;;;5023735;28;20033;-72
2021/01/10 01:36:24;;;;;;;101.57;51.95;;;13.40;67.00;;;;;;5025115;28;20018;-72
2021/01/10 01:38:58;;;;;;;105.22;54.88;;;13.50;67.00;;;;;;5029897;28;20025;-72
2021/01/10 01:41:27;;;;;;;102.47;52.80;;;13.40;67.00;;;;;;5009744;28;20041;-72
2021/01/10 01:44:01;;;;;;;102.75;51.55;;;13.40;67.00;;;;;;5029936;28;20036;-72
2021/01/10 01:46:37;;;;;;;101.70;52.72;;;13.40;67.00;;;;;;5011446;28;20084;-72
2021/01/10 01:49:09;;;;;;;106.45;52.72;;;13.50;67.10;;;;;;5022605;28;20026;-72
2021/01/10 01:52:00;;;;;;;105.40;51.42;;;13.40;67.10;;;;;;5013513;28;20635;-73
2021/01/10 01:54:26;;;;;;;105.60;50.83;;;13.40;67.10;;;;;;5022563;28;20057;-72
2021/01/10 01:57:06;;;;;;;108.93;52.20;;;13.40;67.10;;;;;;5010930;28;20532;-72
2021/01/10 01:59:31;;;;;;;107.57;53.35;;;13.40;67.10;;;;;;5011922;28;20057;-72
2021/01/10 02:02:13;;;;;;;105.78;52.17;;;13.40;67.10;;;;;;5012127;28;20160;-72
2021/01/10 02:04:56;;;;;;;94.63;49.22;;;13.40;67.00;;;;;;5021527;28;20030;-74
2021/01/10 02:07:51;;;;;;;101.40;50.42;;;13.40;67.10;;;;;;5029845;28;20112;-73
2021/01/10 02:10:23;;;;;;;101.10;51.03;;;13.40;67.00;;;;;;5046584;28;20041;-74
2021/01/10 02:13:25;;;;;;;92.25;48.72;;;13.40;67.10;;;;;;5044719;28;20029;-72
2021/01/10 02:16:06;;;;;;;101.28;48.30;;;13.40;67.10;;;;;;5026695;28;20394;-72
2021/01/10 02:19:08;;;;;;;;;;;;;;;;;;;;;
2021/01/10 02:21:51;;;;;;;101.00;50.60;;;13.40;67.10;;;;;;5041071;28;20044;-73
2021/01/10 02:24:22;;;;;;;99.80;50.17;;;13.40;67.10;;;;;;5023644;28;20052;-73
2021/01/10 02:26:53;;;;;;;99.65;50.22;;;13.40;67.10;;;;;;5031813;28;20075;-72
2021/01/10 02:29:23;;;;;;;95.43;49.08;;;13.40;67.10;;;;;;5051535;28;20155;-72
2021/01/10 02:32:24;;;;;;;102.93;49.40;;;13.40;67.10;;;;;;5033228;28;20040;-72
2021/01/10 02:35:07;;;;;;;100.68;51.22;;;13.40;67.10;;;;;;5042395;28;20021;-72
2021/01/10 02:38:02;;;;;;;91.72;49.15;;;13.40;67.10;;;;;;5032916;28;20037;-72
2021/01/10 02:40:33;;;;;;;94.13;48.08;;;13.40;67.10;;;;;;5037514;28;20048;-72
2021/01/10 02:43:42;;;;;;;96.63;50.08;;;13.30;67.10;;;;;;5030817;28;20083;-72
2021/01/10 02:46:14;;;;;;;104.35;50.33;;;13.40;67.10;;;;;;5048325;28;20029;-72
2021/01/10 02:48:48;;;;;;;93.85;48.38;;;13.40;67.10;;;;;;5050917;28;20115;-72
2021/01/10 02:51:19;;;;;;;98.78;49.95;;;13.40;67.10;;;;;;5037509;28;20037;-72
2021/01/10 02:53:49;;;;;;;105.22;50.40;;;13.40;67.10;;;;;;5050137;28;20032;-73
2021/01/10 02:56:28;;;;;;;97.30;49.10;;;13.30;67.10;;;;;;5044506;28;20032;-72
2021/01/10 02:58:59;;;;;;;100.32;50.22;;;13.40;67.10;;;;;;5046412;28;20032;-72
2021/01/10 03:01:31;;;;;;;96.07;48.92;;;13.30;67.10;;;;;;5053714;28;20435;-72
2021/01/10 03:04:18;;;;;;;97.28;48.35;;;13.40;67.10;;;;;;5037056;28;20188;-72
2021/01/10 03:07:30;;;;;;;;;;;;;;;;;;;;;
2021/01/10 03:09:58;;;;;;;91.90;47.55;;;13.40;67.10;;;;;;5043726;28;20405;-72
2021/01/10 03:12:38;;;;;;;91.05;46.08;;;13.30;67.10;;;;;;5029840;28;20038;-72
2021/01/10 03:15:14;;;;;;;88.25;46.42;;;13.30;67.10;;;;;;5043806;28;20029;-73
2021/01/10 03:17:49;;;;;;;90.18;45.58;;;13.30;67.10;;;;;;5050413;28;20064;-73
2021/01/10 03:20:29;;;;;;;90.97;47.50;;;13.30;67.20;;;;;;5051324;28;20123;-72
2021/01/10 03:22:59;;;;;;;96.13;46.65;;;13.30;67.10;;;;;;5053705;28;20048;-72
2021/01/10 03:25:30;;;;;;;93.35;48.10;;;13.30;67.10;;;;;;5035730;28;20166;-72
2021/01/10 03:28:11;;;;;;;92.18;48.78;;;13.30;67.10;;;;;;5051735;28;20083;-72
2021/01/10 03:30:51;;;;;;;91.07;46.65;;;13.30;67.10;;;;;;5053192;28;20036;-72
2021/01/10 03:33:16;;;;;;;92.65;45.90;;;13.30;67.10;;;;;;5048314;28;20028;-72
2021/01/10 03:36:03;;;;;;;92.03;46.58;;;13.30;67.10;;;;;;5048501;28;20364;-72
2021/01/10 03:38:49;;;;;;;89.43;46.22;;;13.40;67.20;;;;;;5042019;28;20116;-72
2021/01/10 03:41:20;;;;;;;88.50;46.67;;;13.30;67.20;;;;;;5031751;28;20041;-72
2021/01/10 03:43:53;;;;;;;93.53;46.38;;;13.30;67.20;;;;;;5034540;28;20036;-73
2021/01/10 03:46:24;;;;;;;92.25;46.03;;;13.30;67.20;;;;;;5046457;28;20029;-72
2021/01/10 03:49:03;;;;;;;86.90;45.50;;;13.30;67.20;;;;;;5049114;28;20025;-72
2021/01/10 03:51:34;;;;;;;89.32;45.17;;;13.30;67.20;;;;;;5050398;28;20433;-72
2021/01/10 03:54:12;;;;;;;91.47;45.80;;;13.30;67.20;;;;;;5046879;28;20478;-72
2021/01/10 03:56:52;;;;;;;89.07;44.97;;;13.30;67.20;;;;;;5050108;28;20064;-72
2021/01/10 03:59:23;;;;;;;86.35;45.10;;;13.30;67.20;;;;;;5052214;28;20029;-72
2021/01/10 04:02:03;;;;;;;92.22;47.30;;;13.30;67.20;;;;;;5053375;28;20037;-72
2021/01/10 04:04:43;;;;;;;94.55;47.28;;;13.30;67.20;;;;;;5038985;28;20048;-72
2021/01/10 04:07:13;;;;;;;92.30;45.22;;;13.30;67.20;;;;;;5050762;28;20091;-72
2021/01/10 04:09:52;;;;;;;90.47;45.53;;;13.30;67.20;;;;;;5050076;28;20049;-72
2021/01/10 04:12:43;;;;;;;89.53;44.60;;;13.30;67.20;;;;;;5047280;28;20103;-72
2021/01/10 04:15:13;;;;;;;93.43;47.35;;;13.30;67.30;;;;;;5050698;28;20382;-72
2021/01/10 04:18:01;;;;;;;80.20;44.17;;;13.30;67.30;;;;;;5035287;28;20422;-72
2021/01/10 04:20:29;;;;;;;87.82;44.17;;;13.30;67.20;;;;;;5046951;28;20033;-73
2021/01/10 04:23:00;;;;;;;85.35;44.17;;;13.30;67.30;;;;;;5043712;28;20100;-72
2021/01/10 04:25:39;;;;;;;88.32;45.05;;;13.30;67.30;;;;;;5053432;28;20025;-73
2021/01/10 04:28:10;;;;;;;91.43;44.58;;;13.30;67.30;;;;;;5051878;28;20046;-73
2021/01/10 04:30:55;;;;;;;87.90;45.08;;;13.30;67.30;;;;;;5051850;28;20100;-72
2021/01/10 04:33:36;;;;;;;94.30;45.58;;;13.30;67.30;;;;;;5048437;28;20083;-75
2021/01/10 04:36:18;;;;;;;88.60;45.88;;;13.30;67.30;;;;;;5040773;28;20052;-72
2021/01/10 04:39:01;;;;;;;84.38;43.63;;;13.30;67.30;;;;;;5049680;28;20114;-72
2021/01/10 04:41:46;;;;;;;91.60;46.63;;;13.30;67.30;;;;;;5045718;28;20516;-73
2021/01/10 04:53:37;;;;;;;86.20;43.28;;;13.30;67.30;;;;;;4888986;23;20059;-75
2021/01/10 04:56:09;;;;;;;87.80;44.25;;;13.30;67.30;;;;;;5039643;28;20455;-74
2021/01/10 04:58:36;;;;;;;87.70;44.92;;;13.30;67.30;;;;;;5029520;28;20444;-73
2021/01/10 05:01:18;;;;;;;87.07;45.20;;;13.30;67.40;;;;;;5031548;28;20033;-75
2021/01/10 05:04:01;;;;;;;75.57;40.88;;;13.30;67.40;;;;;;5031130;28;20475;-74
2021/01/10 05:06:34;;;;;;;83.25;43.05;;;13.30;67.30;;;;;;5046556;28;20067;-72
2021/01/10 05:09:01;;;;;;;88.22;43.72;;;13.30;67.30;;;;;;5034183;28;20029;-74
2021/01/10 05:11:31;;;;;;;80.93;42.25;;;13.30;67.40;;;;;;5025503;28;20033;-76
2021/01/10 05:14:01;;;;;;;79.80;42.65;;;13.30;67.40;;;;;;5035657;28;20120;-74
2021/01/10 05:16:49;;;;;;;83.07;43.33;;;13.30;67.40;;;;;;5050052;28;20370;-73
2021/01/10 05:19:28;;;;;;;88.15;43.90;;;13.30;67.40;;;;;;5023020;28;20043;-72
2021/01/10 05:22:05;;;;;;;85.80;43.20;;;13.30;67.40;;;;;;5053132;28;20036;-73
2021/01/10 05:24:39;;;;;;;82.28;41.88;;;13.30;67.40;;;;;;5032801;28;20120;-73
2021/01/10 05:27:33;;;;;;;82.68;42.00;;;13.30;67.40;;;;;;5047798;28;20029;-73
2021/01/10 05:30:13;;;;;;;81.80;42.13;;;13.30;67.40;;;;;;5036230;28;20045;-73
2021/01/10 05:32:39;;;;;;;81.63;41.80;;;13.30;67.40;;;;;;5032907;28;20021;-73
2021/01/10 05:35:05;;;;;;;83.38;43.17;;;13.30;67.40;;;;;;5045229;28;20029;-73
2021/01/10 05:37:53;;;;;;;83.85;42.03;;;13.20;67.40;;;;;;5046684;28;20029;-73
2021/01/10 05:40:38;;;;;;;80.13;41.65;;;13.30;67.40;;;;;;5030406;28;20072;-73
2021/01/10 05:43:12;;;;;;;70.72;39.15;;;13.30;67.40;;;;;;5045348;28;20522;-73
2021/01/10 05:45:42;;;;;;;77.00;41.88;;;13.30;67.40;;;;;;5036517;28;20103;-73
2021/01/10 05:48:18;;;;;;;85.30;43.60;;;13.30;67.40;;;;;;5032784;28;20074;-74
2021/01/10 05:50:51;;;;;;;82.00;41.88;;;13.30;67.40;;;;;;5031148;28;20037;-73
2021/01/10 05:53:24;;;;;;;75.28;39.28;;;13.30;67.40;;;;;;5030568;28;20041;-74
2021/01/10 05:55:59;;;;;;;72.53;39.80;;;13.30;67.40;;;;;;5031603;28;20045;-73
2021/01/10 05:58:32;;;;;;;76.72;41.42;;;13.30;67.40;;;;;;5033485;28;20421;-73
2021/01/10 06:01:31;;;;;;;77.03;39.75;;;13.20;67.40;;;;;;5030152;28;20036;-73
2021/01/10 06:04:02;;;;;;;77.22;38.92;;;13.30;67.40;;;;;;5048517;28;20021;-73
2021/01/10 06:06:59;;;;;;;74.80;40.80;;;13.20;67.40;;;;;;5032566;28;20050;-73
2021/01/10 06:09:50;;;;;;;76.78;39.00;;;13.20;67.40;;;;;;5045686;28;20021;-73
2021/01/10 06:12:26;;;;;;;78.07;40.85;;;13.30;67.40;;;;;;5023424;28;20022;-74
2021/01/10 06:15:17;;;;;;;75.28;38.05;;;13.20;67.40;;;;;;5032051;28;20021;-73
2021/01/10 06:18:00;;;;;;;68.60;39.55;;;13.30;67.40;;;;;;5029900;28;20026;-73
2021/01/10 06:20:32;;;;;;;75.55;39.63;;;13.20;67.40;;;;;;5052342;28;20031;-73
2021/01/10 06:23:00;;;;;;;74.35;39.72;;;13.30;67.40;;;;;;5047538;28;20489;-73
2021/01/10 06:25:38;;;;;;;75.40;41.20;;;13.20;67.40;;;;;;5029929;28;20058;-72
2021/01/10 06:28:15;;;;;;;;;;;13.20;67.40;;;;;;5055394;28;20032;-73
2021/01/10 06:31:02;;;;;;;71.22;38.20;;;13.20;67.40;;;;;;5047769;28;19931;-73
2021/01/10 06:33:46;;;;;;;71.23;38.83;;;13.30;67.40;;;;;;5031873;28;20025;-73
2021/01/10 06:36:36;;;;;;;69.35;38.13;;;13.20;67.40;;;;;;5033035;28;20025;-73
2021/01/10 06:39:08;;;;;;;72.70;39.22;;;13.20;67.40;;;;;;5034954;28;20025;-74
2021/01/10 06:41:58;;;;;;;69.20;36.35;;;13.20;67.40;;;;;;5045215;28;20422;-74
2021/01/10 06:44:27;;;;;;;75.75;39.28;;;13.20;67.40;;;;;;5048391;28;20040;-73
2021/01/10 06:46:57;;;;;;;;;;;13.30;67.40;;;;;;5036259;28;20382;-73
2021/01/10 06:49:28;;;;;;;68.45;36.75;;;13.20;67.40;;;;;;5028625;28;19905;-74
2021/01/10 06:52:13;;;;;;;68.93;38.17;;;13.20;67.40;;;;;;5050823;28;20035;-73
2021/01/10 06:54:46;;;;;;;73.70;36.53;;;13.20;67.40;;;;;;5031551;28;20086;-73
2021/01/10 06:57:17;;;;;;;71.22;36.80;;;13.30;67.40;;;;;;5035536;28;20075;-73
2021/01/10 07:00:01;;;;;;;71.63;36.95;;;13.30;67.30;;;;;;5033450;28;20017;-73
2021/01/10 07:03:08;;;;;;;75.45;38.63;;;13.30;67.40;;;;;;5030207;28;20024;-73
2021/01/10 07:05:56;;;;;;;69.43;38.13;;;13.20;67.40;;;;;;5052193;28;20036;-73
2021/01/10 07:08:40;;;;;;;69.73;36.37;;;13.20;67.40;;;;;;5036340;28;20032;-73
2021/01/10 07:11:25;;;;;;;77.20;39.10;;;13.20;67.30;;;;;;5046783;28;20315;-72
2021/01/10 07:13:52;;;;;;;70.53;38.47;;;13.30;67.30;;;;;;5035236;28;20024;-73
2021/01/10 07:16:22;;;;;;;75.60;39.35;;;13.30;67.30;;;;;;5052344;28;20025;-73
2021/01/10 07:18:55;;;;;;;72.32;37.50;;;13.30;67.30;;;;;;5035802;28;20071;-73
2021/01/10 07:21:37;;;;;;;72.20;37.17;;;13.20;67.30;;;;;;5046705;28;20065;-73
2021/01/10 07:24:22;;;;;;;69.18;36.63;;;13.30;67.30;;;;;;5034199;28;20032;-74
2021/01/10 07:27:03;;;;;;;69.03;36.38;;;13.30;67.30;;;;;;5046137;28;21810;-73
2021/01/10 07:29:42;;;;;;;73.40;37.40;;;13.30;67.30;;;;;;5049672;28;20110;-72
2021/01/10 07:32:18;;;;;;;;;;;13.30;67.30;;;;;;5037005;28;20036;-72
2021/01/10 07:34:44;;;;;;;67.22;35.40;;;13.30;67.30;;;;;;5049394;28;19909;-73
2021/01/10 07:37:16;;;;;;;74.03;38.50;;;13.30;67.20;;;;;;5044056;28;20032;-73
2021/01/10 07:40:06;;;;;;;70.30;37.67;;;13.30;67.20;;;;;;5047258;28;20025;-72
2021/01/10 07:42:49;;;;;;;63.28;34.95;;;13.30;67.20;;;;;;5047182;28;20098;-74
2021/01/10 07:45:20;;;;;;;70.25;37.03;;;13.30;67.20;;;;;;5026429;28;20033;-73
2021/01/10 07:48:01;;;;;;;67.05;37.97;;;13.30;67.20;;;;;;5038583;28;20045;-74
2021/01/10 07:50:37;;;;;;;67.22;35.92;;;13.30;67.20;;;;;;5033251;28;20099;-73
2021/01/10 07:53:10;;;;;;;64.50;34.97;;;13.30;67.10;;;;;;5036518;28;20065;-73
2021/01/10 07:56:01;;;;;;;71.03;36.60;;;13.30;67.10;;;;;;5031984;28;20034;-74
2021/01/10 07:58:31;;;;;;;67.90;35.92;;;13.30;67.10;;;;;;5030150;28;20430;-73
2021/01/10 08:01:18;;;;;;;70.70;38.13;;;13.30;67.10;;;;;;5016629;28;20038;-72
2021/01/10 08:03:56;;;;;;;68.05;35.65;;;13.30;67.10;;;;;;5030435;28;20029;-74
2021/01/10 08:06:57;;;;;;;66.63;36.72;;;13.30;67.10;;;;;;5028417;28;20459;-72
2021/01/10 08:09:41;;;;;;;67.00;36.95;;;13.30;67.00;;;;;;5010702;28;20040;-72
2021/01/10 08:12:07;;;;;;;66.55;35.45;;;13.30;67.00;;;;;;5009322;28;20366;-72
2021/01/10 08:14:38;;;;;;;67.07;35.08;;;13.30;66.90;;;;;;5010326;28;20030;-73
2021/01/10 08:17:25;;;;;;;67.32;36.72;;;13.30;66.90;;;;;;5024746;28;20095;-72
2021/01/10 08:20:06;;;;;;;;;;;;;;;;;;;;;
2021/01/10 08:22:33;;;;;;;65.70;36.25;;;13.30;66.80;;;;;;5024736;28;20026;-73
2021/01/10 08:25:06;;;;;;;63.00;34.92;;;13.30;66.80;;;;;;5013512;28;20343;-72
2021/01/10 08:27:36;;;;;;;60.22;33.40;;;13.30;66.80;;;;;;5024025;28;20013;-75
2021/01/10 08:30:06;;;;;;;67.35;33.85;;;13.30;66.70;;;;;;5013846;28;20056;-75
2021/01/10 08:32:36;;;;;;;71.57;36.85;;;13.40;66.70;;;;;;5025999;28;20076;-74
2021/01/10 08:35:07;;;;;;;61.33;32.83;;;13.40;66.70;;;;;;5008672;28;20030;-73
2021/01/10 08:37:32;;;;;;;65.05;35.13;;;13.40;66.70;;;;;;5013009;28;20026;-74
2021/01/10 08:40:05;;;;;;;65.97;35.20;;;13.40;66.60;;;;;;5011326;28;20044;-72
2021/01/10 08:42:35;;;;;;;63.22;34.97;;;13.40;66.60;;;;;;5010116;28;20041;-72
2021/01/10 08:45:52;;;;;;;65.00;36.10;;;13.40;66.50;;;;;;5007766;28;20374;-72
2021/01/10 08:48:35;;;;;;;;;;;;;;;;;;;;;
2021/01/10 08:51:26;;;;;;;57.13;33.00;;;13.40;66.50;;;;;;5014989;28;20033;-72
2021/01/10 08:53:56;;;;;;;61.67;32.50;;;13.40;66.50;;;;;;5021898;28;20132;-73
2021/01/10 08:56:36;;;;;;;62.83;33.17;;;13.40;66.50;;;;;;5028213;28;20026;-72
2021/01/10 08:59:03;;;;;;;66.65;35.53;;;13.40;66.50;;;;;;5029201;28;20018;-74
2021/01/10 09:01:41;;;;;;;67.35;35.03;;;13.40;66.50;;;;;;5010697;28;20037;-72
2021/01/10 09:04:09;;;;;;;61.33;33.83;;;13.40;66.50;;;;;;5025362;28;20443;-72
2021/01/10 09:06:48;;;;;;;62.60;33.60;;;13.40;66.50;;;;;;5026844;28;20017;-73
2021/01/10 09:09:33;;;;;;;63.53;33.20;;;13.50;66.40;;;;;;5026787;28;20030;-72
2021/01/10 09:12:11;;;;;;;63.97;33.67;;;13.50;66.40;;;;;;5023391;28;20100;-72
2021/01/10 09:15:08;;;;;;;60.70;33.88;;;13.40;66.40;;;;;;5008057;28;20025;-72
2021/01/10 09:18:08;;;;;;;62.47;33.17;;;13.50;66.40;;;;;;5027533;28;20053;-72
2021/01/10 09:20:46;;;;;;;62.13;32.10;;;13.40;66.40;;;;;;5007477;28;20049;-72
2021/01/10 09:23:17;;;;;;;;;;;13.40;66.40;;;;;;5029553;28;20053;-72
2021/01/10 09:25:42;;;;;;;59.55;32.10;;;13.40;66.30;;;;;;5008810;28;19949;-74
2021/01/10 09:28:42;;;;;;;62.90;33.38;;;13.40;66.40;;;;;;5011499;28;20061;-72
2021/01/10 09:31:07;;;;;;;60.50;32.08;;;13.40;66.30;;;;;;5012425;28;20044;-72
2021/01/10 09:33:37;;;;;;;58.60;31.73;;;13.40;66.30;;;;;;5022495;28;20103;-73
2021/01/10 09:36:26;;;;;;;59.47;31.35;;;13.40;66.30;;;;;;5009436;28;20032;-73
2021/01/10 09:39:05;;;;;;;55.15;31.15;;;13.40;66.30;;;;;;5009232;28;20017;-72
2021/01/10 09:41:51;;;;;;;54.67;31.77;;;13.40;66.30;;;;;;5012637;28;20499;-75
2021/01/10 09:44:18;;;;;;;57.15;31.38;;;13.40;66.30;;;;;;5014627;28;20032;-74
2021/01/10 09:46:59;;;;;;;60.87;31.40;;;13.50;66.20;;;;;;5017760;28;20382;-72
2021/01/10 09:49:38;;;;;;;59.75;30.92;;;13.50;66.20;;;;;;5005573;28;20344;-72
2021/01/10 09:52:13;;;;;;;60.60;31.35;;;13.50;66.20;;;;;;5004399;28;20064;-73
2021/01/10 09:54:42;;;;;;;55.95;32.05;;;13.50;66.20;;;;;;5044139;28;20049;-74
2021/01/10 09:57:13;;;;;;;60.47;32.35;;;13.50;66.20;;;;;;5047552;28;20421;-72
2021/01/10 09:59:58;;;;;;;61.65;32.80;;;13.50;66.20;;;;;;5043085;28;20116;-72
2021/01/10 10:02:40;;;;;;;55.70;31.40;;;13.50;66.20;;;;;;5027222;28;20033;-72
2021/01/10 10:05:10;;;;;;;57.58;30.90;;;13.50;66.10;;;;;;5048882;28;20036;-73
2021/01/10 10:07:54;;;;;;;55.13;29.65;;;13.50;66.10;;;;;;5042961;28;20033;-72
2021/01/10 10:10:36;;;;;;;57.78;30.35;;;13.50;66.10;;;;;;5046793;28;20083;-73
2021/01/10 10:13:10;;;;;;;58.35;31.23;;;13.50;66.00;;;;;;5047758;28;20017;-74
2021/01/10 10:16:03;;;;;;;53.67;30.55;;;13.50;66.00;;;;;;5030964;28;20485;-73
2021/01/10 10:18:36;;;;;;;52.60;31.05;;;13.50;66.00;;;;;;5047160;28;20025;-73
2021/01/10 10:21:07;;;;;;;52.30;29.13;;;13.50;66.00;;;;;;5046233;28;20030;-74
2021/01/10 10:23:41;;;;;;;54.50;30.58;;;13.50;66.00;;;;;;5030764;28;20079;-72
2021/01/10 10:26:07;;;;;;;56.20;30.77;;;13.50;66.00;;;;;;5029362;28;20501;-73
2021/01/10 10:28:41;;;;;;;55.95;30.48;;;13.50;66.00;;;;;;5046805;28;20092;-72
2021/01/10 10:31:25;;;;;;;58.78;31.23;;;13.50;66.10;;;;;;5026201;28;20045;-71
2021/01/10 10:33:55;;;;;;;55.22;29.85;;;13.50;66.10;;;;;;5033789;28;20057;-72
2021/01/10 10:36:26;;;;;;;53.80;29.38;;;13.50;66.10;;;;;;5050551;28;20056;-72
2021/01/10 10:38:51;;;;;;;55.83;31.10;;;13.50;66.10;;;;;;5042872;28;20084;-72
2021/01/10 10:41:21;;;;;;;58.20;30.77;;;13.50;66.10;;;;;;5021578;28;20433;-72
2021/01/10 10:43:51;;;;;;;50.47;29.10;;;13.50;66.10;;;;;;5043801;28;20018;-72
2021/01/10 10:46:22;;;;;;;52.13;29.63;;;13.50;66.10;;;;;;5051595;28;20017;-74
2021/01/10 10:48:47;;;;;;;52.53;30.52;;;13.50;66.10;;;;;;5032004;28;20079;-73
2021/01/10 10:51:13;;;;;;;51.05;29.85;;;13.50;66.00;;;;;;5049170;28;20028;-73
2021/01/10 10:53:51;;;;;;;52.60;29.77;;;13.50;66.00;;;;;;5054053;28;20378;-73
2021/01/10 10:56:16;;;;;;;54.08;28.88;;;13.50;66.00;;;;;;5029629;28;20029;-75
2021/01/10 10:58:54;;;;;;;52.47;28.95;;;13.50;66.00;;;;;;5024294;28;20434;-75
2021/01/10 11:01:20;;;;;;;53.05;29.58;;;13.50;66.00;;;;;;5039816;28;20052;-73
2021/01/10 11:04:04;;;;;;;55.85;29.95;;;13.50;66.10;;;;;;5030374;28;20063;-75
2021/01/10 11:06:35;;;;;;;55.85;30.35;;;13.50;66.10;;;;;;5048426;28;20025;-73
2021/01/10 11:09:02;;;;;;;51.85;29.27;;;13.50;66.10;;;;;;5052655;28;20456;-73
2021/01/10 11:11:38;;;;;;;56.17;29.08;;;13.50;66.10;;;;;;5029617;28;20431;-73
2021/01/10 11:14:04;;;;;;;53.13;29.38;;;13.50;66.10;;;;;;5032217;28;20375;-74
2021/01/10 11:17:02;;;;;;;51.05;28.45;;;13.50;66.10;;;;;;5054310;28;20017;-74
2021/01/10 11:19:48;;;;;;;51.05;27.65;;;13.50;66.10;;;;;;5045208;28;20037;-74
2021/01/10 11:22:29;;;;;;;52.22;29.52;;;13.50;66.10;;;;;;5050129;28;20304;-73
2021/01/10 11:24:57;;;;;;;50.58;29.75;;;13.50;66.10;;;;;;5034182;28;20029;-73
2021/01/10 11:28:00;;;;;;;48.85;27.58;;;13.50;66.10;;;;;;5049580;28;20035;-74
2021/01/10 11:30:38;;;;;;;47.35;26.30;;;13.50;66.10;;;;;;5047175;28;20462;-73
2021/01/10 11:33:14;;;;;;;50.35;28.63;;;13.50;66.10;;;;;;5043340;28;20025;-74
2021/01/10 11:35:45;;;;;;;50.88;27.95;;;13.40;66.10;;;;;;5050758;28;20095;-73
2021/01/10 11:38:11;;;;;;;56.28;30.38;;;13.50;66.10;;;;;;5051318;28;20033;-74
2021/01/10 11:41:06;;;;;;;51.17;28.65;;;13.50;66.10;;;;;;5053342;28;20428;-73
2021/01/10 11:43:33;;;;;;;47.63;28.35;;;13.50;66.00;;;;;;5047736;28;20052;-74
2021/01/10 11:46:09;;;;;;;50.22;30.27;;;13.50;66.10;;;;;;5034977;28;20114;-74
2021/01/10 11:48:37;;;;;;;49.20;28.67;;;13.50;66.10;;;;;;5033332;28;20068;-75
2021/01/10 11:51:20;;;;;;;53.90;28.13;;;13.50;66.00;;;;;;5028623;28;20091;-74
2021/01/10 11:54:01;;;;;;;53.70;28.55;;;13.50;66.10;;;;;;5031451;28;20037;-75
2021/01/10 11:56:27;;;;;;;50.05;27.80;;;13.50;66.00;;;;;;5027858;28;20032;-75
2021/01/10 11:58:53;;;;;;;47.78;26.85;;;13.50;66.00;;;;;;5031863;28;20108;-75
2021/01/10 12:01:40;;;;;;;50.22;28.30;;;13.50;66.00;;;;;;5022959;28;20047;-75
2021/01/10 12:04:10;;;;;;;49.78;26.10;;;13.50;66.00;;;;;;5046866;28;20032;-75
2021/01/10 12:06:48;;;;;;;49.10;28.15;;;13.50;66.10;;;;;;5032666;28;20471;-74
2021/01/10 12:09:18;;;;;;;55.40;29.60;;;13.50;66.10;;;;;;5030600;28;20035;-74
2021/01/10 12:11:47;;;;;;;48.75;28.00;;;13.50;66.00;;;;;;5034366;28;20035;-75
2021/01/10 12:14:18;;;;;;;50.13;27.70;;;13.50;66.00;;;;;;5025865;28;20021;-74
2021/01/10 12:17:11;;;;;;;50.05;29.23;;;13.50;66.00;;;;;;5051429;28;20048;-75
2021/01/10 12:19:42;;;;;;;51.40;27.17;;;13.50;66.00;;;;;;5042854;28;20046;-75
2021/01/10 12:22:22;;;;;;;51.00;27.67;;;13.50;66.00;;;;;;5033665;28;20108;-76
2021/01/10 12:24:52;;;;;;;49.60;27.88;;;13.50;66.00;;;;;;5033696;28;20040;-75
2021/01/10 12:27:23;;;;;;;51.95;27.25;;;13.50;66.00;;;;;;5047920;28;20044;-75
2021/01/10 12:30:04;;;;;;;49.28;28.63;;;13.50;66.00;;;;;;5025389;28;20104;-74
2021/01/10 12:32:38;;;;;;;46.63;26.00;;;13.50;66.00;;;;;;5045561;28;20029;-75
2021/01/10 12:35:11;;;;;;;48.70;26.63;;;13.50;66.00;;;;;;5052783;28;20021;-75
2021/01/10 12:37:56;;;;;;;46.35;26.33;;;13.50;66.00;;;;;;5045956;28;20025;-75
2021/01/10 12:40:27;;;;;;;51.05;28.38;;;13.50;66.00;;;;;;5028942;28;20029;-75
2021/01/10 12:43:13;;;;;;;45.88;26.55;;;13.50;65.90;;;;;;5026900;28;20532;-75
2021/01/10 12:45:52;;;;;;;46.08;25.70;;;13.50;65.90;;;;;;5033867;28;20111;-75
2021/01/10 12:48:23;;;;;;;45.92;25.27;;;13.50;65.90;;;;;;5050182;28;20485;-75
2021/01/10 12:50:54;;;;;;;49.05;26.75;;;13.50;65.80;;;;;;5034236;28;20027;-75
2021/01/10 12:53:24;;;;;;;44.45;24.90;;;13.50;65.90;;;;;;5030805;28;20041;-76
2021/01/10 12:55:52;;;;;;;47.10;26.40;;;13.50;65.90;;;;;;5049354;28;20031;-75
2021/01/10 12:58:24;;;;;;;50.10;26.90;;;13.60;65.90;;;;;;5029119;28;20029;-75
2021/01/10 13:00:55;;;;;;;45.55;26.48;;;13.50;65.90;;;;;;5038708;28;20362;-75
2021/01/10 13:03:26;;;;;;;46.47;24.73;;;13.50;65.80;;;;;;5044583;28;20021;-75
2021/01/10 13:05:56;;;;;;;49.05;26.92;;;13.50;65.80;;;;;;5049560;28;20018;-74
2021/01/10 13:08:35;;;;;;;45.88;26.00;;;13.50;65.80;;;;;;5034588;28;20410;-76
2021/01/10 13:11:08;;;;;;;46.30;25.27;;;13.50;65.80;;;;;;5044122;28;20044;-76
2021/01/10 13:13:44;;;;;;;44.05;26.17;;;13.50;65.80;;;;;;5029104;28;20060;-75
2021/01/10 13:16:15;;;;;;;46.63;25.95;;;13.60;65.90;;;;;;5034123;28;20033;-75
2021/01/10 13:18:41;;;;;;;42.28;25.42;;;13.50;65.80;;;;;;5025532;28;20032;-74
2021/01/10 13:21:11;;;;;;;44.90;25.52;;;13.50;65.80;;;;;;5028711;28;20041;-74
2021/01/10 13:23:53;;;;;;;;;;;;;;;;;;;;;
2021/01/10 13:26:29;;;;;;;43.88;24.75;;;13.50;65.80;;;;;;5049284;28;20435;-75
2021/01/10 13:29:03;;;;;;;43.92;24.67;;;13.60;65.80;;;;;;5048718;28;20037;-75
2021/01/10 13:31:34;;;;;;;41.38;23.92;;;13.50;65.70;;;;;;5042085;28;20953;-73
2021/01/10 13:34:05;;;;;;;47.15;27.80;;;13.50;65.80;;;;;;5047681;28;20025;-74